sensor_id;sensor_type;location;lat;lon;timestamp;P1;durP1;ratioP1;P2;durP2;ratioP2
67278;SDS011;54193;53.746;10.058;2023-11-21T00:02:24;29.05;;;9.40;;
67278;SDS011;54193;53.746;10.058;2023-11-21T00:05:10;26.37;;;9.20;;
67278;SDS011;54193;53.746;10.058;2023-11-21T00:07:57;21.63;;;8.52;;
67278;SDS011;54193;53.746;10.058;2023-11-21T00:10:43;35.60;;;10.98;;
67278;SDS011;54193;53.746;10.058;2023-11-21T00:13:29;20.77;;;7.27;;
67278;SDS011;54193;53.746;10.058;2023-11-21T00:16:15;20.75;;;7.50;;
67278;SDS011;54193;53.746;10.058;2023-11-21T00:19:00;33.97;;;11.07;;
67278;SDS011;54193;53.746;10.058;2023-11-21T00:21:46;25.77;;;8.80;;
67278;SDS011;54193;53.746;10.058;2023-11-21T00:24:32;34.05;;;11.70;;
67278;SDS011;54193;53.746;10.058;2023-11-21T00:27:18;32.45;;;10.73;;
67278;SDS011;54193;53.746;10.058;2023-11-21T00:30:06;25.88;;;8.93;;
67278;SDS011;54193;53.746;10.058;2023-11-21T00:32:52;24.17;;;9.80;;
67278;SDS011;54193;53.746;10.058;2023-11-21T00:35:38;29.50;;;10.40;;
67278;SDS011;54193;53.746;10.058;2023-11-21T00:38:23;33.40;;;10.95;;
67278;SDS011;54193;53.746;10.058;2023-11-21T00:41:09;31.63;;;9.60;;
67278;SDS011;54193;53.746;10.058;2023-11-21T00:43:55;27.70;;;9.85;;
67278;SDS011;54193;53.746;10.058;2023-11-21T00:46:40;36.25;;;10.90;;
67278;SDS011;54193;53.746;10.058;2023-11-21T00:49:26;36.60;;;12.52;;
67278;SDS011;54193;53.746;10.058;2023-11-21T00:52:13;34.28;;;11.88;;
67278;SDS011;54193;53.746;10.058;2023-11-21T00:54:58;30.75;;;10.50;;
67278;SDS011;54193;53.746;10.058;2023-11-21T00:57:45;35.33;;;11.50;;
67278;SDS011;54193;53.746;10.058;2023-11-21T01:00:31;30.67;;;11.33;;
67278;SDS011;54193;53.746;10.058;2023-11-21T01:03:16;30.40;;;10.18;;
67278;SDS011;54193;53.746;10.058;2023-11-21T01:06:02;31.45;;;10.93;;
67278;SDS011;54193;53.746;10.058;2023-11-21T01:08:49;34.77;;;10.80;;
67278;SDS011;54193;53.746;10.058;2023-11-21T01:11:35;34.13;;;11.40;;
67278;SDS011;54193;53.746;10.058;2023-11-21T01:14:22;36.70;;;10.77;;
67278;SDS011;54193;53.746;10.058;2023-11-21T01:17:08;35.40;;;11.43;;
67278;SDS011;54193;53.746;10.058;2023-11-21T01:19:54;35.47;;;11.93;;
67278;SDS011;54193;53.746;10.058;2023-11-21T01:22:41;33.20;;;10.20;;
67278;SDS011;54193;53.746;10.058;2023-11-21T01:25:27;12.70;;;5.25;;
67278;SDS011;54193;53.746;10.058;2023-11-21T01:28:13;18.53;;;7.73;;
67278;SDS011;54193;53.746;10.058;2023-11-21T01:30:58;17.30;;;6.43;;
67278;SDS011;54193;53.746;10.058;2023-11-21T01:33:44;18.00;;;6.43;;
67278;SDS011;54193;53.746;10.058;2023-11-21T01:36:32;21.73;;;7.83;;
67278;SDS011;54193;53.746;10.058;2023-11-21T01:39:18;15.98;;;5.65;;
67278;SDS011;54193;53.746;10.058;2023-11-21T01:42:08;13.07;;;5.18;;
67278;SDS011;54193;53.746;10.058;2023-11-21T01:44:54;8.93;;;3.88;;
67278;SDS011;54193;53.746;10.058;2023-11-21T01:47:40;19.00;;;6.45;;
67278;SDS011;54193;53.746;10.058;2023-11-21T01:50:27;19.17;;;7.50;;
67278;SDS011;54193;53.746;10.058;2023-11-21T01:53:13;18.83;;;6.57;;
67278;SDS011;54193;53.746;10.058;2023-11-21T01:56:00;19.63;;;6.43;;
67278;SDS011;54193;53.746;10.058;2023-11-21T01:58:45;19.42;;;7.70;;
67278;SDS011;54193;53.746;10.058;2023-11-21T02:01:32;19.00;;;7.00;;
67278;SDS011;54193;53.746;10.058;2023-11-21T02:04:19;21.07;;;9.80;;
67278;SDS011;54193;53.746;10.058;2023-11-21T02:07:06;18.88;;;7.10;;
67278;SDS011;54193;53.746;10.058;2023-11-21T02:09:52;17.80;;;6.63;;
67278;SDS011;54193;53.746;10.058;2023-11-21T02:12:38;17.17;;;6.25;;
67278;SDS011;54193;53.746;10.058;2023-11-21T02:15:24;18.42;;;7.18;;
67278;SDS011;54193;53.746;10.058;2023-11-21T02:18:13;20.00;;;7.55;;
67278;SDS011;54193;53.746;10.058;2023-11-21T02:21:00;18.15;;;7.10;;
67278;SDS011;54193;53.746;10.058;2023-11-21T02:23:48;23.57;;;9.10;;
67278;SDS011;54193;53.746;10.058;2023-11-21T02:26:33;18.42;;;7.10;;
67278;SDS011;54193;53.746;10.058;2023-11-21T02:36:44;17.02;;;5.65;;
67278;SDS011;54193;53.746;10.058;2023-11-21T02:39:29;13.43;;;4.53;;
67278;SDS011;54193;53.746;10.058;2023-11-21T02:42:15;20.45;;;7.13;;
67278;SDS011;54193;53.746;10.058;2023-11-21T02:45:01;17.10;;;6.22;;
67278;SDS011;54193;53.746;10.058;2023-11-21T02:47:47;19.48;;;7.55;;
67278;SDS011;54193;53.746;10.058;2023-11-21T02:50:34;21.40;;;7.50;;
67278;SDS011;54193;53.746;10.058;2023-11-21T02:53:20;20.07;;;6.37;;
67278;SDS011;54193;53.746;10.058;2023-11-21T02:56:06;19.90;;;7.88;;
67278;SDS011;54193;53.746;10.058;2023-11-21T02:58:54;16.60;;;6.30;;
67278;SDS011;54193;53.746;10.058;2023-11-21T03:01:41;16.83;;;6.87;;
67278;SDS011;54193;53.746;10.058;2023-11-21T03:04:26;16.65;;;6.50;;
67278;SDS011;54193;53.746;10.058;2023-11-21T03:07:12;17.73;;;7.13;;
67278;SDS011;54193;53.746;10.058;2023-11-21T03:09:58;19.30;;;7.25;;
67278;SDS011;54193;53.746;10.058;2023-11-21T03:12:43;19.02;;;7.22;;
67278;SDS011;54193;53.746;10.058;2023-11-21T03:15:29;17.85;;;7.18;;
67278;SDS011;54193;53.746;10.058;2023-11-21T03:18:15;15.00;;;5.20;;
67278;SDS011;54193;53.746;10.058;2023-11-21T03:21:01;19.50;;;8.00;;
67278;SDS011;54193;53.746;10.058;2023-11-21T03:23:46;16.15;;;6.72;;
67278;SDS011;54193;53.746;10.058;2023-11-21T03:26:32;17.00;;;6.35;;
67278;SDS011;54193;53.746;10.058;2023-11-21T03:29:18;17.10;;;7.00;;
67278;SDS011;54193;53.746;10.058;2023-11-21T03:32:04;15.30;;;6.32;;
67278;SDS011;54193;53.746;10.058;2023-11-21T03:34:56;15.18;;;6.03;;
67278;SDS011;54193;53.746;10.058;2023-11-21T03:37:43;16.48;;;6.10;;
67278;SDS011;54193;53.746;10.058;2023-11-21T03:40:29;15.48;;;5.75;;
67278;SDS011;54193;53.746;10.058;2023-11-21T03:43:14;14.63;;;5.05;;
67278;SDS011;54193;53.746;10.058;2023-11-21T03:46:00;12.98;;;5.53;;
67278;SDS011;54193;53.746;10.058;2023-11-21T03:48:45;20.40;;;8.67;;
67278;SDS011;54193;53.746;10.058;2023-11-21T03:51:32;17.25;;;7.10;;
67278;SDS011;54193;53.746;10.058;2023-11-21T03:54:19;17.05;;;6.85;;
67278;SDS011;54193;53.746;10.058;2023-11-21T03:57:04;17.20;;;7.20;;
67278;SDS011;54193;53.746;10.058;2023-11-21T03:59:50;13.63;;;5.85;;
67278;SDS011;54193;53.746;10.058;2023-11-21T04:02:36;15.40;;;6.30;;
67278;SDS011;54193;53.746;10.058;2023-11-21T04:05:21;13.25;;;5.30;;
67278;SDS011;54193;53.746;10.058;2023-11-21T04:08:08;16.77;;;6.70;;
67278;SDS011;54193;53.746;10.058;2023-11-21T04:10:53;11.25;;;4.63;;
67278;SDS011;54193;53.746;10.058;2023-11-21T04:13:40;9.52;;;4.38;;
67278;SDS011;54193;53.746;10.058;2023-11-21T04:16:26;13.93;;;5.57;;
67278;SDS011;54193;53.746;10.058;2023-11-21T04:19:11;15.38;;;5.28;;
67278;SDS011;54193;53.746;10.058;2023-11-21T04:21:59;21.08;;;8.68;;
67278;SDS011;54193;53.746;10.058;2023-11-21T04:24:45;16.07;;;5.90;;
67278;SDS011;54193;53.746;10.058;2023-11-21T04:27:31;15.82;;;6.18;;
67278;SDS011;54193;53.746;10.058;2023-11-21T04:30:17;17.77;;;6.72;;
67278;SDS011;54193;53.746;10.058;2023-11-21T04:33:03;15.07;;;5.93;;
67278;SDS011;54193;53.746;10.058;2023-11-21T04:35:48;15.10;;;4.97;;
67278;SDS011;54193;53.746;10.058;2023-11-21T04:38:34;15.45;;;7.07;;
67278;SDS011;54193;53.746;10.058;2023-11-21T04:41:20;9.30;;;4.05;;
67278;SDS011;54193;53.746;10.058;2023-11-21T04:44:06;16.27;;;7.17;;
67278;SDS011;54193;53.746;10.058;2023-11-21T04:46:51;15.68;;;6.75;;
67278;SDS011;54193;53.746;10.058;2023-11-21T04:49:37;17.63;;;6.43;;
67278;SDS011;54193;53.746;10.058;2023-11-21T04:52:23;15.00;;;5.63;;
67278;SDS011;54193;53.746;10.058;2023-11-21T04:55:08;18.95;;;7.82;;
67278;SDS011;54193;53.746;10.058;2023-11-21T04:57:55;16.08;;;5.18;;
67278;SDS011;54193;53.746;10.058;2023-11-21T05:00:41;16.52;;;6.25;;
67278;SDS011;54193;53.746;10.058;2023-11-21T05:03:26;10.35;;;3.85;;
67278;SDS011;54193;53.746;10.058;2023-11-21T05:06:12;15.52;;;5.88;;
67278;SDS011;54193;53.746;10.058;2023-11-21T05:08:57;16.17;;;6.47;;
67278;SDS011;54193;53.746;10.058;2023-11-21T05:11:44;12.13;;;4.50;;
67278;SDS011;54193;53.746;10.058;2023-11-21T05:14:29;13.68;;;5.63;;
67278;SDS011;54193;53.746;10.058;2023-11-21T05:17:15;15.20;;;6.32;;
67278;SDS011;54193;53.746;10.058;2023-11-21T05:20:01;15.07;;;6.83;;
67278;SDS011;54193;53.746;10.058;2023-11-21T05:22:53;13.10;;;5.68;;
67278;SDS011;54193;53.746;10.058;2023-11-21T05:25:39;11.55;;;4.97;;
67278;SDS011;54193;53.746;10.058;2023-11-21T05:28:24;13.52;;;5.55;;
67278;SDS011;54193;53.746;10.058;2023-11-21T05:31:10;14.07;;;5.80;;
67278;SDS011;54193;53.746;10.058;2023-11-21T05:33:56;13.15;;;5.65;;
67278;SDS011;54193;53.746;10.058;2023-11-21T05:36:45;13.45;;;5.38;;
67278;SDS011;54193;53.746;10.058;2023-11-21T05:39:30;14.13;;;5.43;;
67278;SDS011;54193;53.746;10.058;2023-11-21T05:42:17;13.43;;;5.57;;
67278;SDS011;54193;53.746;10.058;2023-11-21T05:45:02;16.00;;;5.57;;
67278;SDS011;54193;53.746;10.058;2023-11-21T05:47:55;14.80;;;6.27;;
67278;SDS011;54193;53.746;10.058;2023-11-21T05:50:41;16.13;;;6.43;;
67278;SDS011;54193;53.746;10.058;2023-11-21T05:53:26;13.52;;;5.22;;
67278;SDS011;54193;53.746;10.058;2023-11-21T05:56:12;16.33;;;6.35;;
67278;SDS011;54193;53.746;10.058;2023-11-21T05:58:59;11.13;;;4.30;;
67278;SDS011;54193;53.746;10.058;2023-11-21T06:01:45;16.38;;;7.43;;
67278;SDS011;54193;53.746;10.058;2023-11-21T06:04:31;15.55;;;6.13;;
67278;SDS011;54193;53.746;10.058;2023-11-21T06:07:16;13.00;;;5.70;;
67278;SDS011;54193;53.746;10.058;2023-11-21T06:10:03;9.82;;;4.32;;
67278;SDS011;54193;53.746;10.058;2023-11-21T06:12:52;10.90;;;4.22;;
67278;SDS011;54193;53.746;10.058;2023-11-21T06:15:38;14.73;;;6.50;;
67278;SDS011;54193;53.746;10.058;2023-11-21T06:18:24;13.45;;;5.65;;
67278;SDS011;54193;53.746;10.058;2023-11-21T06:21:09;13.68;;;5.45;;
67278;SDS011;54193;53.746;10.058;2023-11-21T06:23:56;13.77;;;5.03;;
67278;SDS011;54193;53.746;10.058;2023-11-21T06:26:42;14.95;;;5.80;;
67278;SDS011;54193;53.746;10.058;2023-11-21T06:29:29;15.00;;;5.70;;
67278;SDS011;54193;53.746;10.058;2023-11-21T06:32:15;14.82;;;5.47;;
67278;SDS011;54193;53.746;10.058;2023-11-21T06:35:02;13.70;;;5.33;;
67278;SDS011;54193;53.746;10.058;2023-11-21T06:37:49;16.10;;;7.00;;
67278;SDS011;54193;53.746;10.058;2023-11-21T06:40:36;13.05;;;5.43;;
67278;SDS011;54193;53.746;10.058;2023-11-21T06:43:22;15.10;;;6.27;;
67278;SDS011;54193;53.746;10.058;2023-11-21T06:46:07;17.20;;;7.20;;
67278;SDS011;54193;53.746;10.058;2023-11-21T06:48:53;17.33;;;6.65;;
67278;SDS011;54193;53.746;10.058;2023-11-21T06:51:38;15.75;;;6.40;;
67278;SDS011;54193;53.746;10.058;2023-11-21T06:54:26;17.20;;;6.90;;
67278;SDS011;54193;53.746;10.058;2023-11-21T06:57:12;20.92;;;7.80;;
67278;SDS011;54193;53.746;10.058;2023-11-21T06:59:57;20.00;;;7.88;;
67278;SDS011;54193;53.746;10.058;2023-11-21T07:02:43;18.23;;;6.90;;
67278;SDS011;54193;53.746;10.058;2023-11-21T07:05:29;17.88;;;6.13;;
67278;SDS011;54193;53.746;10.058;2023-11-21T07:08:15;18.85;;;6.68;;
67278;SDS011;54193;53.746;10.058;2023-11-21T07:11:01;17.03;;;6.90;;
67278;SDS011;54193;53.746;10.058;2023-11-21T07:13:48;16.40;;;6.70;;
67278;SDS011;54193;53.746;10.058;2023-11-21T07:16:36;18.13;;;6.75;;
67278;SDS011;54193;53.746;10.058;2023-11-21T07:19:23;15.98;;;5.85;;
67278;SDS011;54193;53.746;10.058;2023-11-21T07:22:09;12.38;;;5.45;;
67278;SDS011;54193;53.746;10.058;2023-11-21T07:24:54;13.45;;;4.80;;
67278;SDS011;54193;53.746;10.058;2023-11-21T07:27:44;14.05;;;5.43;;
67278;SDS011;54193;53.746;10.058;2023-11-21T07:30:30;10.40;;;3.80;;
67278;SDS011;54193;53.746;10.058;2023-11-21T07:33:17;15.05;;;5.80;;
67278;SDS011;54193;53.746;10.058;2023-11-21T07:36:03;14.20;;;5.97;;
67278;SDS011;54193;53.746;10.058;2023-11-21T07:38:49;12.97;;;5.47;;
67278;SDS011;54193;53.746;10.058;2023-11-21T07:41:35;10.73;;;4.00;;
67278;SDS011;54193;53.746;10.058;2023-11-21T07:44:22;15.48;;;3.63;;
67278;SDS011;54193;53.746;10.058;2023-11-21T07:47:08;11.52;;;4.03;;
67278;SDS011;54193;53.746;10.058;2023-11-21T07:49:53;10.13;;;4.18;;
67278;SDS011;54193;53.746;10.058;2023-11-21T07:52:41;10.02;;;4.43;;
67278;SDS011;54193;53.746;10.058;2023-11-21T07:55:26;7.03;;;2.83;;
67278;SDS011;54193;53.746;10.058;2023-11-21T07:58:12;8.97;;;3.23;;
67278;SDS011;54193;53.746;10.058;2023-11-21T08:00:58;9.95;;;3.70;;
67278;SDS011;54193;53.746;10.058;2023-11-21T08:03:43;10.10;;;4.57;;
67278;SDS011;54193;53.746;10.058;2023-11-21T08:06:29;14.10;;;6.20;;
67278;SDS011;54193;53.746;10.058;2023-11-21T08:09:16;13.25;;;5.88;;
67278;SDS011;54193;53.746;10.058;2023-11-21T08:12:02;13.65;;;4.82;;
67278;SDS011;54193;53.746;10.058;2023-11-21T08:14:50;15.15;;;5.10;;
67278;SDS011;54193;53.746;10.058;2023-11-21T08:17:35;10.00;;;3.70;;
67278;SDS011;54193;53.746;10.058;2023-11-21T08:20:21;12.20;;;5.07;;
67278;SDS011;54193;53.746;10.058;2023-11-21T08:23:08;7.60;;;3.22;;
67278;SDS011;54193;53.746;10.058;2023-11-21T08:25:53;6.93;;;3.10;;
67278;SDS011;54193;53.746;10.058;2023-11-21T08:28:39;4.50;;;2.40;;
67278;SDS011;54193;53.746;10.058;2023-11-21T08:31:25;7.97;;;3.35;;
67278;SDS011;54193;53.746;10.058;2023-11-21T08:34:12;9.73;;;3.30;;
67278;SDS011;54193;53.746;10.058;2023-11-21T08:36:58;9.77;;;3.28;;
67278;SDS011;54193;53.746;10.058;2023-11-21T08:39:44;9.45;;;3.50;;
67278;SDS011;54193;53.746;10.058;2023-11-21T08:42:30;10.13;;;3.83;;
67278;SDS011;54193;53.746;10.058;2023-11-21T08:45:15;8.77;;;3.50;;
67278;SDS011;54193;53.746;10.058;2023-11-21T08:48:02;9.00;;;3.70;;
67278;SDS011;54193;53.746;10.058;2023-11-21T08:50:48;9.57;;;3.50;;
67278;SDS011;54193;53.746;10.058;2023-11-21T08:53:34;8.23;;;3.30;;
67278;SDS011;54193;53.746;10.058;2023-11-21T08:56:20;7.53;;;3.05;;
67278;SDS011;54193;53.746;10.058;2023-11-21T08:59:05;9.85;;;3.88;;
67278;SDS011;54193;53.746;10.058;2023-11-21T09:01:53;9.87;;;3.63;;
67278;SDS011;54193;53.746;10.058;2023-11-21T09:04:38;9.13;;;3.83;;
67278;SDS011;54193;53.746;10.058;2023-11-21T09:07:24;7.75;;;3.30;;
67278;SDS011;54193;53.746;10.058;2023-11-21T09:10:11;9.23;;;4.07;;
67278;SDS011;54193;53.746;10.058;2023-11-21T09:12:56;11.50;;;4.10;;
67278;SDS011;54193;53.746;10.058;2023-11-21T09:15:42;9.43;;;4.03;;
67278;SDS011;54193;53.746;10.058;2023-11-21T09:18:31;10.88;;;4.43;;
67278;SDS011;54193;53.746;10.058;2023-11-21T09:21:17;13.47;;;4.10;;
67278;SDS011;54193;53.746;10.058;2023-11-21T09:24:03;5.20;;;2.08;;
67278;SDS011;54193;53.746;10.058;2023-11-21T09:26:49;8.68;;;3.42;;
67278;SDS011;54193;53.746;10.058;2023-11-21T09:29:35;8.10;;;3.53;;
67278;SDS011;54193;53.746;10.058;2023-11-21T09:32:22;6.57;;;2.75;;
67278;SDS011;54193;53.746;10.058;2023-11-21T09:35:07;7.03;;;3.25;;
67278;SDS011;54193;53.746;10.058;2023-11-21T09:37:53;7.93;;;3.00;;
67278;SDS011;54193;53.746;10.058;2023-11-21T09:40:40;7.82;;;3.55;;
67278;SDS011;54193;53.746;10.058;2023-11-21T09:43:26;4.60;;;2.28;;
67278;SDS011;54193;53.746;10.058;2023-11-21T09:46:16;4.50;;;2.13;;
67278;SDS011;54193;53.746;10.058;2023-11-21T09:49:06;5.17;;;2.70;;
67278;SDS011;54193;53.746;10.058;2023-11-21T09:51:57;6.47;;;3.08;;
67278;SDS011;54193;53.746;10.058;2023-11-21T09:54:44;5.50;;;2.20;;
67278;SDS011;54193;53.746;10.058;2023-11-21T09:57:31;5.00;;;2.57;;
67278;SDS011;54193;53.746;10.058;2023-11-21T10:00:17;5.43;;;2.28;;
67278;SDS011;54193;53.746;10.058;2023-11-21T10:03:06;6.38;;;3.10;;
67278;SDS011;54193;53.746;10.058;2023-11-21T10:05:52;6.72;;;3.15;;
67278;SDS011;54193;53.746;10.058;2023-11-21T10:08:39;6.57;;;2.45;;
67278;SDS011;54193;53.746;10.058;2023-11-21T10:11:24;6.95;;;3.00;;
67278;SDS011;54193;53.746;10.058;2023-11-21T10:14:11;7.15;;;3.05;;
67278;SDS011;54193;53.746;10.058;2023-11-21T10:16:58;3.80;;;1.70;;
67278;SDS011;54193;53.746;10.058;2023-11-21T10:19:46;4.95;;;2.05;;
67278;SDS011;54193;53.746;10.058;2023-11-21T10:22:32;7.63;;;3.42;;
67278;SDS011;54193;53.746;10.058;2023-11-21T10:25:19;7.53;;;3.00;;
67278;SDS011;54193;53.746;10.058;2023-11-21T10:28:05;8.32;;;3.35;;
67278;SDS011;54193;53.746;10.058;2023-11-21T10:30:52;6.75;;;2.63;;
67278;SDS011;54193;53.746;10.058;2023-11-21T10:33:40;7.32;;;3.10;;
67278;SDS011;54193;53.746;10.058;2023-11-21T10:36:27;6.97;;;3.58;;
67278;SDS011;54193;53.746;10.058;2023-11-21T10:39:14;4.38;;;2.30;;
67278;SDS011;54193;53.746;10.058;2023-11-21T10:42:04;6.20;;;3.28;;
67278;SDS011;54193;53.746;10.058;2023-11-21T10:44:53;6.70;;;3.30;;
67278;SDS011;54193;53.746;10.058;2023-11-21T10:47:43;4.93;;;2.03;;
67278;SDS011;54193;53.746;10.058;2023-11-21T10:50:29;5.70;;;2.53;;
67278;SDS011;54193;53.746;10.058;2023-11-21T10:53:15;4.60;;;1.97;;
67278;SDS011;54193;53.746;10.058;2023-11-21T10:56:05;7.38;;;3.10;;
67278;SDS011;54193;53.746;10.058;2023-11-21T10:58:53;7.65;;;3.53;;
67278;SDS011;54193;53.746;10.058;2023-11-21T11:01:39;8.85;;;3.60;;
67278;SDS011;54193;53.746;10.058;2023-11-21T11:04:30;7.90;;;3.60;;
67278;SDS011;54193;53.746;10.058;2023-11-21T11:07:17;7.20;;;3.60;;
67278;SDS011;54193;53.746;10.058;2023-11-21T11:10:03;9.57;;;3.60;;
67278;SDS011;54193;53.746;10.058;2023-11-21T11:12:49;5.17;;;2.50;;
67278;SDS011;54193;53.746;10.058;2023-11-21T11:15:37;6.82;;;3.30;;
67278;SDS011;54193;53.746;10.058;2023-11-21T11:18:24;8.75;;;3.58;;
67278;SDS011;54193;53.746;10.058;2023-11-21T11:21:18;10.20;;;2.93;;
67278;SDS011;54193;53.746;10.058;2023-11-21T11:33:39;8.75;;;3.67;;
67278;SDS011;54193;53.746;10.058;2023-11-21T11:36:34;17.27;;;8.77;;
67278;SDS011;54193;53.746;10.058;2023-11-21T11:39:27;9.05;;;4.60;;
67278;SDS011;54193;53.746;10.058;2023-11-21T11:42:17;5.67;;;2.13;;
67278;SDS011;54193;53.746;10.058;2023-11-21T11:45:17;6.72;;;3.38;;
67278;SDS011;54193;53.746;10.058;2023-11-21T11:48:05;11.35;;;5.43;;
67278;SDS011;54193;53.746;10.058;2023-11-21T11:54:00;8.52;;;3.53;;
67278;SDS011;54193;53.746;10.058;2023-11-21T11:56:47;11.65;;;7.25;;
67278;SDS011;54193;53.746;10.058;2023-11-21T11:59:50;10.07;;;5.25;;
67278;SDS011;54193;53.746;10.058;2023-11-21T12:03:01;7.50;;;3.38;;
67278;SDS011;54193;53.746;10.058;2023-11-21T12:05:48;6.93;;;3.33;;
67278;SDS011;54193;53.746;10.058;2023-11-21T12:08:37;7.18;;;3.60;;
67278;SDS011;54193;53.746;10.058;2023-11-21T12:11:29;9.10;;;3.50;;
67278;SDS011;54193;53.746;10.058;2023-11-21T12:14:18;6.95;;;3.47;;
67278;SDS011;54193;53.746;10.058;2023-11-21T12:17:04;6.10;;;2.67;;
67278;SDS011;54193;53.746;10.058;2023-11-21T12:19:50;8.30;;;3.80;;
67278;SDS011;54193;53.746;10.058;2023-11-21T12:22:37;8.73;;;4.30;;
67278;SDS011;54193;53.746;10.058;2023-11-21T12:25:27;7.72;;;2.67;;
67278;SDS011;54193;53.746;10.058;2023-11-21T12:28:14;8.57;;;4.05;;
67278;SDS011;54193;53.746;10.058;2023-11-21T12:31:00;8.40;;;4.13;;
67278;SDS011;54193;53.746;10.058;2023-11-21T12:33:46;7.43;;;3.67;;
67278;SDS011;54193;53.746;10.058;2023-11-21T12:36:32;7.47;;;3.58;;
67278;SDS011;54193;53.746;10.058;2023-11-21T12:39:19;8.87;;;4.10;;
67278;SDS011;54193;53.746;10.058;2023-11-21T12:42:07;9.27;;;3.65;;
67278;SDS011;54193;53.746;10.058;2023-11-21T12:45:08;9.30;;;4.25;;
67278;SDS011;54193;53.746;10.058;2023-11-21T12:48:01;8.80;;;4.80;;
67278;SDS011;54193;53.746;10.058;2023-11-21T12:50:48;6.85;;;2.95;;
67278;SDS011;54193;53.746;10.058;2023-11-21T12:53:38;11.48;;;5.13;;
67278;SDS011;54193;53.746;10.058;2023-11-21T12:56:24;6.38;;;2.65;;
67278;SDS011;54193;53.746;10.058;2023-11-21T12:59:12;7.40;;;2.90;;
67278;SDS011;54193;53.746;10.058;2023-11-21T13:02:01;6.65;;;2.65;;
67278;SDS011;54193;53.746;10.058;2023-11-21T13:04:53;6.38;;;2.80;;
67278;SDS011;54193;53.746;10.058;2023-11-21T13:07:42;9.70;;;4.60;;
67278;SDS011;54193;53.746;10.058;2023-11-21T13:10:32;6.90;;;3.10;;
67278;SDS011;54193;53.746;10.058;2023-11-21T13:13:21;7.70;;;3.75;;
67278;SDS011;54193;53.746;10.058;2023-11-21T13:16:07;7.80;;;3.72;;
67278;SDS011;54193;53.746;10.058;2023-11-21T13:18:53;4.53;;;2.20;;
67278;SDS011;54193;53.746;10.058;2023-11-21T13:21:39;13.40;;;5.85;;
67278;SDS011;54193;53.746;10.058;2023-11-21T13:24:25;12.38;;;6.43;;
67278;SDS011;54193;53.746;10.058;2023-11-21T13:27:11;8.73;;;3.50;;
67278;SDS011;54193;53.746;10.058;2023-11-21T13:30:00;10.00;;;3.70;;
67278;SDS011;54193;53.746;10.058;2023-11-21T13:32:46;12.65;;;5.63;;
67278;SDS011;54193;53.746;10.058;2023-11-21T13:35:32;13.70;;;5.10;;
67278;SDS011;54193;53.746;10.058;2023-11-21T13:38:22;7.32;;;3.20;;
67278;SDS011;54193;53.746;10.058;2023-11-21T13:41:08;9.13;;;4.55;;
67278;SDS011;54193;53.746;10.058;2023-11-21T13:43:55;6.50;;;2.65;;
67278;SDS011;54193;53.746;10.058;2023-11-21T13:46:49;7.03;;;3.20;;
67278;SDS011;54193;53.746;10.058;2023-11-21T13:49:36;5.68;;;2.80;;
67278;SDS011;54193;53.746;10.058;2023-11-21T13:52:26;8.20;;;3.80;;
67278;SDS011;54193;53.746;10.058;2023-11-21T13:55:13;6.53;;;3.17;;
67278;SDS011;54193;53.746;10.058;2023-11-21T13:58:01;7.43;;;3.47;;
67278;SDS011;54193;53.746;10.058;2023-11-21T14:00:47;8.15;;;3.10;;
67278;SDS011;54193;53.746;10.058;2023-11-21T14:03:37;5.15;;;2.45;;
67278;SDS011;54193;53.746;10.058;2023-11-21T14:06:30;14.15;;;4.90;;
67278;SDS011;54193;53.746;10.058;2023-11-21T14:09:25;11.57;;;4.22;;
67278;SDS011;54193;53.746;10.058;2023-11-21T14:12:11;7.95;;;3.17;;
67278;SDS011;54193;53.746;10.058;2023-11-21T14:14:58;16.97;;;7.80;;
67278;SDS011;54193;53.746;10.058;2023-11-21T14:17:44;6.75;;;2.25;;
67278;SDS011;54193;53.746;10.058;2023-11-21T14:20:30;7.68;;;2.88;;
67278;SDS011;54193;53.746;10.058;2023-11-21T14:23:15;11.60;;;4.30;;
67278;SDS011;54193;53.746;10.058;2023-11-21T14:26:01;10.27;;;4.40;;
67278;SDS011;54193;53.746;10.058;2023-11-21T14:28:47;8.15;;;3.08;;
67278;SDS011;54193;53.746;10.058;2023-11-21T14:31:34;7.17;;;2.93;;
67278;SDS011;54193;53.746;10.058;2023-11-21T14:34:20;10.25;;;4.05;;
67278;SDS011;54193;53.746;10.058;2023-11-21T14:37:07;8.90;;;3.97;;
67278;SDS011;54193;53.746;10.058;2023-11-21T14:39:52;6.13;;;2.50;;
67278;SDS011;54193;53.746;10.058;2023-11-21T14:42:38;10.45;;;4.43;;
67278;SDS011;54193;53.746;10.058;2023-11-21T14:45:25;8.48;;;3.40;;
67278;SDS011;54193;53.746;10.058;2023-11-21T14:48:11;7.95;;;2.88;;
67278;SDS011;54193;53.746;10.058;2023-11-21T14:51:01;7.53;;;3.22;;
67278;SDS011;54193;53.746;10.058;2023-11-21T14:53:46;8.18;;;3.35;;
67278;SDS011;54193;53.746;10.058;2023-11-21T14:56:45;9.13;;;4.13;;
67278;SDS011;54193;53.746;10.058;2023-11-21T14:59:31;11.40;;;4.97;;
67278;SDS011;54193;53.746;10.058;2023-11-21T15:02:18;7.00;;;3.25;;
67278;SDS011;54193;53.746;10.058;2023-11-21T15:05:07;7.97;;;3.50;;
67278;SDS011;54193;53.746;10.058;2023-11-21T15:07:57;10.30;;;3.80;;
67278;SDS011;54193;53.746;10.058;2023-11-21T15:10:53;8.13;;;3.35;;
67278;SDS011;54193;53.746;10.058;2023-11-21T15:13:40;11.68;;;4.00;;
67278;SDS011;54193;53.746;10.058;2023-11-21T15:16:27;11.60;;;6.20;;
67278;SDS011;54193;53.746;10.058;2023-11-21T15:19:12;14.77;;;7.20;;
67278;SDS011;54193;53.746;10.058;2023-11-21T15:22:04;9.98;;;5.15;;
67278;SDS011;54193;53.746;10.058;2023-11-21T15:24:52;9.53;;;4.40;;
67278;SDS011;54193;53.746;10.058;2023-11-21T15:27:39;11.25;;;4.72;;
67278;SDS011;54193;53.746;10.058;2023-11-21T15:30:26;9.63;;;4.47;;
67278;SDS011;54193;53.746;10.058;2023-11-21T15:33:12;8.77;;;4.07;;
67278;SDS011;54193;53.746;10.058;2023-11-21T15:35:58;8.03;;;3.60;;
67278;SDS011;54193;53.746;10.058;2023-11-21T15:38:44;11.85;;;4.70;;
67278;SDS011;54193;53.746;10.058;2023-11-21T15:41:30;12.93;;;4.30;;
67278;SDS011;54193;53.746;10.058;2023-11-21T15:44:15;9.93;;;4.55;;
67278;SDS011;54193;53.746;10.058;2023-11-21T15:47:01;5.03;;;2.50;;
67278;SDS011;54193;53.746;10.058;2023-11-21T15:49:49;11.35;;;5.38;;
67278;SDS011;54193;53.746;10.058;2023-11-21T15:52:35;12.38;;;5.43;;
67278;SDS011;54193;53.746;10.058;2023-11-21T15:55:20;12.87;;;5.77;;
67278;SDS011;54193;53.746;10.058;2023-11-21T15:58:06;15.27;;;5.25;;
67278;SDS011;54193;53.746;10.058;2023-11-21T16:00:51;11.45;;;4.63;;
67278;SDS011;54193;53.746;10.058;2023-11-21T16:03:37;9.95;;;4.18;;
67278;SDS011;54193;53.746;10.058;2023-11-21T16:06:23;13.00;;;3.97;;
67278;SDS011;54193;53.746;10.058;2023-11-21T16:09:09;10.93;;;4.40;;
67278;SDS011;54193;53.746;10.058;2023-11-21T16:12:07;10.48;;;4.00;;
67278;SDS011;54193;53.746;10.058;2023-11-21T16:14:53;9.83;;;3.93;;
67278;SDS011;54193;53.746;10.058;2023-11-21T16:17:38;12.88;;;4.30;;
67278;SDS011;54193;53.746;10.058;2023-11-21T16:20:24;7.55;;;3.25;;
67278;SDS011;54193;53.746;10.058;2023-11-21T16:23:11;10.07;;;4.17;;
67278;SDS011;54193;53.746;10.058;2023-11-21T16:25:56;8.57;;;3.50;;
67278;SDS011;54193;53.746;10.058;2023-11-21T16:28:42;12.40;;;4.32;;
67278;SDS011;54193;53.746;10.058;2023-11-21T16:31:28;12.15;;;4.07;;
67278;SDS011;54193;53.746;10.058;2023-11-21T16:34:14;8.40;;;2.75;;
67278;SDS011;54193;53.746;10.058;2023-11-21T16:37:01;6.60;;;1.95;;
67278;SDS011;54193;53.746;10.058;2023-11-21T16:39:48;9.80;;;4.13;;
67278;SDS011;54193;53.746;10.058;2023-11-21T16:42:34;11.57;;;4.20;;